sensor_id;sensor_type;location;lat;lon;timestamp;pressure;altitude;pressure_sealevel;temperature;humidity
17593;BME280;8915;51.760;14.300;2023-02-18T00:00:13;100845.16;;;5.66;100.00
17593;BME280;8915;51.760;14.300;2023-02-18T00:02:41;100848.63;;;5.56;100.00
17593;BME280;8915;51.760;14.300;2023-02-18T00:05:08;100855.53;;;5.53;100.00
17593;BME280;8915;51.760;14.300;2023-02-18T00:07:35;100858.97;;;5.52;100.00
17593;BME280;8915;51.760;14.300;2023-02-18T00:10:02;100868.44;;;5.56;100.00
17593;BME280;8915;51.760;14.300;2023-02-18T00:12:30;100872.78;;;5.49;100.00
17593;BME280;8915;51.760;14.300;2023-02-18T00:14:58;100874.47;;;5.47;100.00
17593;BME280;8915;51.760;14.300;2023-02-18T00:17:24;100862.44;;;5.44;100.00
17593;BME280;8915;51.760;14.300;2023-02-18T00:19:51;100872.78;;;5.37;100.00
17593;BME280;8915;51.760;14.300;2023-02-18T00:22:17;100862.44;;;5.44;100.00
17593;BME280;8915;51.760;14.300;2023-02-18T00:24:43;100857.25;;;5.40;100.00
17593;BME280;8915;51.760;14.300;2023-02-18T00:27:10;100858.97;;;5.36;100.00
17593;BME280;8915;51.760;14.300;2023-02-18T00:29:36;100864.19;;;5.31;100.00
17593;BME280;8915;51.760;14.300;2023-02-18T00:32:05;100882.25;;;5.27;100.00
17593;BME280;8915;51.760;14.300;2023-02-18T00:34:32;100871.06;;;5.22;100.00
17593;BME280;8915;51.760;14.300;2023-02-18T00:37:02;100863.31;;;5.23;100.00
17593;BME280;8915;51.760;14.300;2023-02-18T00:39:28;100857.28;;;5.17;100.00
17593;BME280;8915;51.760;14.300;2023-02-18T00:41:55;100860.72;;;5.12;100.00
17593;BME280;8915;51.760;14.300;2023-02-18T00:44:21;100862.44;;;5.09;100.00
17593;BME280;8915;51.760;14.300;2023-02-18T00:46:48;100869.34;;;5.01;100.00
17593;BME280;8915;51.760;14.300;2023-02-18T00:49:16;100860.72;;;4.97;100.00
17593;BME280;8915;51.760;14.300;2023-02-18T00:51:43;100858.13;;;4.94;100.00
17593;BME280;8915;51.760;14.300;2023-02-18T00:54:09;100867.63;;;4.87;100.00
17593;BME280;8915;51.760;14.300;2023-02-18T00:56:35;100871.06;;;5.02;100.00
17593;BME280;8915;51.760;14.300;2023-02-18T00:59:02;100878.81;;;5.02;100.00
17593;BME280;8915;51.760;14.300;2023-02-18T01:01:29;100879.66;;;4.99;100.00
17593;BME280;8915;51.760;14.300;2023-02-18T01:03:55;100873.63;;;5.06;100.00
17593;BME280;8915;51.760;14.300;2023-02-18T01:06:23;100870.22;;;4.98;100.00
17593;BME280;8915;51.760;14.300;2023-02-18T01:08:49;100871.91;;;5.01;100.00
17593;BME280;8915;51.760;14.300;2023-02-18T01:11:16;100876.22;;;4.97;100.00
17593;BME280;8915;51.760;14.300;2023-02-18T01:13:42;100866.72;;;4.85;100.00
17593;BME280;8915;51.760;14.300;2023-02-18T01:16:09;100880.50;;;4.80;100.00
17593;BME280;8915;51.760;14.300;2023-02-18T01:18:36;100876.22;;;4.86;100.00
17593;BME280;8915;51.760;14.300;2023-02-18T01:21:04;100884.81;;;4.76;100.00
17593;BME280;8915;51.760;14.300;2023-02-18T01:23:36;100880.53;;;4.87;100.00
17593;BME280;8915;51.760;14.300;2023-02-18T01:26:03;100877.03;;;4.74;100.00
17593;BME280;8915;51.760;14.300;2023-02-18T01:28:29;100882.19;;;4.65;100.00
17593;BME280;8915;51.760;14.300;2023-02-18T01:30:56;100883.91;;;4.60;100.00
17593;BME280;8915;51.760;14.300;2023-02-18T01:33:24;100883.94;;;4.68;100.00
17593;BME280;8915;51.760;14.300;2023-02-18T01:35:52;100872.72;;;4.58;100.00
17593;BME280;8915;51.760;14.300;2023-02-18T01:38:21;100889.94;;;4.58;100.00
17593;BME280;8915;51.760;14.300;2023-02-18T01:40:51;100887.38;;;4.65;100.00
17593;BME280;8915;51.760;14.300;2023-02-18T01:43:19;100891.66;;;4.60;100.00
17593;BME280;8915;51.760;14.300;2023-02-18T01:45:56;100879.59;;;4.61;100.00
17593;BME280;8915;51.760;14.300;2023-02-18T01:48:25;100869.28;;;4.56;100.00
17593;BME280;8915;51.760;14.300;2023-02-18T01:50:55;100877.88;;;4.50;100.00
17593;BME280;8915;51.760;14.300;2023-02-18T01:53:26;100877.03;;;4.56;100.00
17593;BME280;8915;51.760;14.300;2023-02-18T01:55:54;100859.78;;;4.46;100.00
17593;BME280;8915;51.760;14.300;2023-02-18T01:58:23;100863.22;;;4.42;100.00
17593;BME280;8915;51.760;14.300;2023-02-18T02:00:50;100865.78;;;4.45;100.00
17593;BME280;8915;51.760;14.300;2023-02-18T02:03:16;100863.25;;;4.60;100.00
17593;BME280;8915;51.760;14.300;2023-02-18T02:05:42;100860.66;;;4.54;100.00
17593;BME280;8915;51.760;14.300;2023-02-18T02:08:13;100858.09;;;4.54;100.00
17593;BME280;8915;51.760;14.300;2023-02-18T02:11:01;100855.47;;;4.49;100.00
17593;BME280;8915;51.760;14.300;2023-02-18T02:13:38;100860.63;;;4.48;100.00
17593;BME280;8915;51.760;14.300;2023-02-18T02:16:13;100867.53;;;4.50;100.00
17593;BME280;8915;51.760;14.300;2023-02-18T02:18:52;100862.38;;;4.47;100.00
17593;BME280;8915;51.760;14.300;2023-02-18T02:24:48;100874.38;;;4.39;100.00
17593;BME280;8915;51.760;14.300;2023-02-18T02:27:25;100872.66;;;4.40;100.00
17593;BME280;8915;51.760;14.300;2023-02-18T02:33:41;100876.97;;;4.48;100.00
17593;BME280;8915;51.760;14.300;2023-02-18T02:36:18;100892.50;;;4.53;100.00
17593;BME280;8915;51.760;14.300;2023-02-18T02:38:53;100882.19;;;4.54;100.00
17593;BME280;8915;51.760;14.300;2023-02-18T02:41:30;100894.19;;;4.43;100.00
17593;BME280;8915;51.760;14.300;2023-02-18T02:44:09;100895.06;;;4.48;100.00
17593;BME280;8915;51.760;14.300;2023-02-18T02:46:40;100887.28;;;4.39;100.00
17593;BME280;8915;51.760;14.300;2023-02-18T02:49:19;100895.84;;;4.29;100.00
17593;BME280;8915;51.760;14.300;2023-02-18T02:51:55;100896.72;;;4.32;100.00
17593;BME280;8915;51.760;14.300;2023-02-18T02:54:26;100901.88;;;4.26;100.00
17593;BME280;8915;51.760;14.300;2023-02-18T02:57:07;100911.41;;;4.38;100.00
17593;BME280;8915;51.760;14.300;2023-02-18T02:59:39;100904.47;;;4.32;100.00
17593;BME280;8915;51.760;14.300;2023-02-18T03:02:17;100900.19;;;4.31;100.00
17593;BME280;8915;51.760;14.300;2023-02-18T03:04:58;100900.16;;;4.30;100.00
17593;BME280;8915;51.760;14.300;2023-02-18T03:07:41;100896.72;;;4.28;100.00
17593;BME280;8915;51.760;14.300;2023-02-18T03:10:23;100894.97;;;4.21;100.00
17593;BME280;8915;51.760;14.300;2023-02-18T03:12:58;100893.25;;;4.20;100.00
17593;BME280;8915;51.760;14.300;2023-02-18T03:15:36;100889.78;;;4.16;100.00
17593;BME280;8915;51.760;14.300;2023-02-18T03:18:07;100889.81;;;4.25;100.00
17593;BME280;8915;51.760;14.300;2023-02-18T03:20:42;100888.06;;;4.20;100.00
17593;BME280;8915;51.760;14.300;2023-02-18T03:23:16;100902.72;;;4.27;100.00
17593;BME280;8915;51.760;14.300;2023-02-18T03:25:45;100905.34;;;4.36;100.00
17593;BME280;8915;51.760;14.300;2023-02-18T03:28:16;100895.91;;;4.38;100.00
17593;BME280;8915;51.760;14.300;2023-02-18T03:30:47;100917.44;;;4.42;100.00
17593;BME280;8915;51.760;14.300;2023-02-18T03:33:19;100907.09;;;4.45;100.00
17593;BME280;8915;51.760;14.300;2023-02-18T03:35:49;100907.97;;;4.48;100.00
17593;BME280;8915;51.760;14.300;2023-02-18T03:38:20;100912.28;;;4.51;100.00
17593;BME280;8915;51.760;14.300;2023-02-18T03:40:49;100910.56;;;4.51;100.00
17593;BME280;8915;51.760;14.300;2023-02-18T03:43:16;100924.34;;;4.55;100.00
17593;BME280;8915;51.760;14.300;2023-02-18T03:45:42;100928.69;;;4.59;100.00
17593;BME280;8915;51.760;14.300;2023-02-18T03:48:09;100926.94;;;4.58;100.00
17593;BME280;8915;51.760;14.300;2023-02-18T03:50:35;100930.41;;;4.63;100.00
17593;BME280;8915;51.760;14.300;2023-02-18T03:53:02;100918.38;;;4.65;100.00
17593;BME280;8915;51.760;14.300;2023-02-18T03:55:29;100928.72;;;4.74;100.00
17593;BME280;8915;51.760;14.300;2023-02-18T03:57:56;100928.75;;;4.82;100.00
17593;BME280;8915;51.760;14.300;2023-02-18T04:00:22;100925.28;;;4.83;100.00
17593;BME280;8915;51.760;14.300;2023-02-18T04:02:49;100923.56;;;4.85;100.00
17593;BME280;8915;51.760;14.300;2023-02-18T04:05:16;100925.28;;;4.83;100.00
17593;BME280;8915;51.760;14.300;2023-02-18T04:07:42;100927.91;;;4.91;100.00
17593;BME280;8915;51.760;14.300;2023-02-18T04:10:09;100938.22;;;4.94;100.00
17593;BME280;8915;51.760;14.300;2023-02-18T04:12:37;100930.50;;;4.92;100.00
17593;BME280;8915;51.760;14.300;2023-02-18T04:15:04;100930.47;;;4.94;100.00
17593;BME280;8915;51.760;14.300;2023-02-18T04:17:31;100931.38;;;4.95;100.00
17593;BME280;8915;51.760;14.300;2023-02-18T04:19:58;100921.00;;;4.98;100.00
17593;BME280;8915;51.760;14.300;2023-02-18T04:22:24;100938.25;;;5.00;100.00
17593;BME280;8915;51.760;14.300;2023-02-18T04:24:51;100925.34;;;5.05;100.00
17593;BME280;8915;51.760;14.300;2023-02-18T04:27:17;100926.19;;;5.10;100.00
17593;BME280;8915;51.760;14.300;2023-02-18T04:29:47;100927.06;;;5.07;100.00
17593;BME280;8915;51.760;14.300;2023-02-18T04:32:13;100917.59;;;5.11;100.00
17593;BME280;8915;51.760;14.300;2023-02-18T04:34:40;100922.75;;;5.11;100.00
17593;BME280;8915;51.760;14.300;2023-02-18T04:37:06;100921.91;;;5.10;100.00
17593;BME280;8915;51.760;14.300;2023-02-18T04:39:32;100921.91;;;5.17;100.00
17593;BME280;8915;51.760;14.300;2023-02-18T04:41:59;100920.16;;;5.19;100.00
17593;BME280;8915;51.760;14.300;2023-02-18T04:44:26;100917.59;;;5.22;100.00
17593;BME280;8915;51.760;14.300;2023-02-18T04:46:54;100923.66;;;5.21;100.00
17593;BME280;8915;51.760;14.300;2023-02-18T04:49:20;100918.47;;;5.21;100.00
17593;BME280;8915;51.760;14.300;2023-02-18T04:51:47;100921.03;;;5.27;100.00
17593;BME280;8915;51.760;14.300;2023-02-18T04:54:13;100921.91;;;5.30;100.00
17593;BME280;8915;51.760;14.300;2023-02-18T04:56:40;100928.78;;;5.36;100.00
17593;BME280;8915;51.760;14.300;2023-02-18T04:59:06;100934.84;;;5.37;100.00
17593;BME280;8915;51.760;14.300;2023-02-18T05:01:32;100931.38;;;5.38;100.00
17593;BME280;8915;51.760;14.300;2023-02-18T05:04:00;100927.94;;;5.39;100.00
17593;BME280;8915;51.760;14.300;2023-02-18T05:06:28;100917.59;;;5.31;100.00
17593;BME280;8915;51.760;14.300;2023-02-18T05:08:54;100915.88;;;5.30;100.00
17593;BME280;8915;51.760;14.300;2023-02-18T05:11:20;100918.47;;;5.30;100.00
17593;BME280;8915;51.760;14.300;2023-02-18T05:13:47;100922.78;;;5.37;100.00
17593;BME280;8915;51.760;14.300;2023-02-18T05:16:13;100924.50;;;5.35;100.00
17593;BME280;8915;51.760;14.300;2023-02-18T05:18:40;100927.94;;;5.31;100.00
17593;BME280;8915;51.760;14.300;2023-02-18T05:21:07;100919.34;;;5.38;100.00
17593;BME280;8915;51.760;14.300;2023-02-18T05:23:36;100919.34;;;5.37;100.00
17593;BME280;8915;51.760;14.300;2023-02-18T05:26:02;100924.50;;;5.41;100.00
17593;BME280;8915;51.760;14.300;2023-02-18T05:28:29;100918.47;;;5.39;100.00
17593;BME280;8915;51.760;14.300;2023-02-18T05:30:56;100914.16;;;5.34;100.00
17593;BME280;8915;51.760;14.300;2023-02-18T05:33:23;100918.47;;;5.31;100.00
17593;BME280;8915;51.760;14.300;2023-02-18T05:35:49;100911.59;;;5.37;100.00
17593;BME280;8915;51.760;14.300;2023-02-18T05:38:17;100902.94;;;5.36;100.00
17593;BME280;8915;51.760;14.300;2023-02-18T05:40:43;100915.88;;;5.36;100.00
17593;BME280;8915;51.760;14.300;2023-02-18T05:43:09;100910.72;;;5.42;100.00
17593;BME280;8915;51.760;14.300;2023-02-18T05:45:36;100920.19;;;5.43;100.00
17593;BME280;8915;51.760;14.300;2023-02-18T05:48:03;100910.72;;;5.42;100.00
17593;BME280;8915;51.760;14.300;2023-02-18T05:50:29;100916.72;;;5.40;100.00
17593;BME280;8915;51.760;14.300;2023-02-18T05:52:56;100914.16;;;5.37;100.00
17593;BME280;8915;51.760;14.300;2023-02-18T05:55:23;100908.13;;;5.42;100.00
17593;BME280;8915;51.760;14.300;2023-02-18T05:57:50;100909.00;;;5.50;100.00
17593;BME280;8915;51.760;14.300;2023-02-18T06:00:17;100912.44;;;5.49;100.00
17593;BME280;8915;51.760;14.300;2023-02-18T06:02:43;100906.41;;;5.47;100.00
17593;BME280;8915;51.760;14.300;2023-02-18T06:05:10;100922.75;;;5.45;100.00
17593;BME280;8915;51.760;14.300;2023-02-18T06:07:37;100915.03;;;5.49;100.00
17593;BME280;8915;51.760;14.300;2023-02-18T06:10:04;100917.59;;;5.51;100.00
17593;BME280;8915;51.760;14.300;2023-02-18T06:12:32;100911.56;;;5.55;100.00
17593;BME280;8915;51.760;14.300;2023-02-18T06:14:59;100917.63;;;5.54;100.00
17593;BME280;8915;51.760;14.300;2023-02-18T06:17:25;100915.00;;;5.56;100.00
17593;BME280;8915;51.760;14.300;2023-02-18T06:19:51;100914.16;;;5.54;100.00
17593;BME280;8915;51.760;14.300;2023-02-18T06:22:18;100915.88;;;5.53;100.00
17593;BME280;8915;51.760;14.300;2023-02-18T06:24:44;100910.69;;;5.62;100.00
17593;BME280;8915;51.760;14.300;2023-02-18T06:27:11;100908.94;;;5.64;100.00
17593;BME280;8915;51.760;14.300;2023-02-18T06:29:38;100896.03;;;5.67;100.00
17593;BME280;8915;51.760;14.300;2023-02-18T06:32:05;100902.91;;;5.62;100.00
17593;BME280;8915;51.760;14.300;2023-02-18T06:34:31;100909.81;;;5.60;100.00
17593;BME280;8915;51.760;14.300;2023-02-18T06:36:58;100898.63;;;5.57;100.00
17593;BME280;8915;51.760;14.300;2023-02-18T06:39:24;100912.41;;;5.69;100.00
17593;BME280;8915;51.760;14.300;2023-02-18T06:41:50;100902.91;;;5.73;100.00
17593;BME280;8915;51.760;14.300;2023-02-18T06:44:17;100907.22;;;5.71;100.00
17593;BME280;8915;51.760;14.300;2023-02-18T06:46:45;100904.63;;;5.76;100.00
17593;BME280;8915;51.760;14.300;2023-02-18T06:49:11;100907.22;;;5.79;100.00
17593;BME280;8915;51.760;14.300;2023-02-18T06:51:38;100909.78;;;5.82;100.00
17593;BME280;8915;51.760;14.300;2023-02-18T06:54:04;100902.91;;;5.78;100.00
17593;BME280;8915;51.760;14.300;2023-02-18T06:56:31;100908.09;;;5.79;100.00
17593;BME280;8915;51.760;14.300;2023-02-18T06:58:58;100916.69;;;5.81;100.00
17593;BME280;8915;51.760;14.300;2023-02-18T07:01:24;100919.28;;;5.81;100.00
17593;BME280;8915;51.760;14.300;2023-02-18T07:03:52;100921.88;;;5.86;100.00
17593;BME280;8915;51.760;14.300;2023-02-18T07:06:18;100912.38;;;5.88;100.00
17593;BME280;8915;51.760;14.300;2023-02-18T07:08:45;100910.66;;;5.88;100.00
17593;BME280;8915;51.760;14.300;2023-02-18T07:11:11;100904.59;;;5.94;100.00
17593;BME280;8915;51.760;14.300;2023-02-18T07:13:37;100904.59;;;5.93;100.00
17593;BME280;8915;51.760;14.300;2023-02-18T07:16:04;100908.91;;;5.92;100.00
17593;BME280;8915;51.760;14.300;2023-02-18T07:18:31;100899.41;;;5.93;100.00
17593;BME280;8915;51.760;14.300;2023-02-18T07:20:58;100907.16;;;5.94;100.00
17593;BME280;8915;51.760;14.300;2023-02-18T07:23:25;100908.06;;;5.95;100.00
17593;BME280;8915;51.760;14.300;2023-02-18T07:25:51;100896.00;;;6.00;100.00
17593;BME280;8915;51.760;14.300;2023-02-18T07:28:18;100901.19;;;5.98;100.00
17593;BME280;8915;51.760;14.300;2023-02-18T07:30:44;100888.22;;;5.98;100.00
17593;BME280;8915;51.760;14.300;2023-02-18T07:33:11;100898.59;;;6.00;100.00
17593;BME280;8915;51.760;14.300;2023-02-18T07:35:38;100896.84;;;5.99;100.00
17593;BME280;8915;51.760;14.300;2023-02-18T07:38:06;100908.94;;;6.00;100.00
17593;BME280;8915;51.760;14.300;2023-02-18T07:40:32;100903.75;;;5.98;100.00
17593;BME280;8915;51.760;14.300;2023-02-18T07:42:58;100898.56;;;5.95;100.00
17593;BME280;8915;51.760;14.300;2023-02-18T07:45:25;100886.47;;;5.94;100.00
17593;BME280;8915;51.760;14.300;2023-02-18T07:47:51;100880.44;;;5.91;100.00
17593;BME280;8915;51.760;14.300;2023-02-18T07:50:18;100875.25;;;5.89;100.00
17593;BME280;8915;51.760;14.300;2023-02-18T07:52:44;100879.59;;;5.92;100.00
17593;BME280;8915;51.760;14.300;2023-02-18T07:55:12;100876.16;;;5.91;100.00
17593;BME280;8915;51.760;14.300;2023-02-18T07:57:38;100871.81;;;5.88;100.00
17593;BME280;8915;51.760;14.300;2023-02-18T08:00:19;100859.75;;;5.91;100.00
17593;BME280;8915;51.760;14.300;2023-02-18T08:02:46;100859.75;;;5.89;100.00
17593;BME280;8915;51.760;14.300;2023-02-18T08:05:12;100864.06;;;5.84;100.00
17593;BME280;8915;51.760;14.300;2023-02-18T08:07:39;100858.91;;;5.82;100.00
17593;BME280;8915;51.760;14.300;2023-02-18T08:10:06;100851.16;;;5.78;100.00
17593;BME280;8915;51.760;14.300;2023-02-18T08:12:33;100856.34;;;5.72;100.00
17593;BME280;8915;51.760;14.300;2023-02-18T08:15:00;100850.31;;;5.71;100.00
17593;BME280;8915;51.760;14.300;2023-02-18T08:17:26;100858.06;;;5.74;100.00
17593;BME280;8915;51.760;14.300;2023-02-18T08:19:53;100846.88;;;5.74;100.00
17593;BME280;8915;51.760;14.300;2023-02-18T08:22:19;100858.91;;;5.75;100.00
17593;BME280;8915;51.760;14.300;2023-02-18T08:24:45;100846.88;;;5.75;100.00
17593;BME280;8915;51.760;14.300;2023-02-18T08:27:12;100838.22;;;5.73;100.00
17593;BME280;8915;51.760;14.300;2023-02-18T08:29:40;100821.84;;;5.73;100.00
17593;BME280;8915;51.760;14.300;2023-02-18T08:32:06;100812.38;;;5.67;100.00
17593;BME280;8915;51.760;14.300;2023-02-18T08:34:32;100798.59;;;5.65;100.00
17593;BME280;8915;51.760;14.300;2023-02-18T08:37:00;100802.03;;;5.61;100.00
17593;BME280;8915;51.760;14.300;2023-02-18T08:39:26;100795.16;;;5.57;100.00
17593;BME280;8915;51.760;14.300;2023-02-18T08:41:53;100799.47;;;5.52;100.00
17593;BME280;8915;51.760;14.300;2023-02-18T08:44:20;100802.06;;;5.48;100.00
17593;BME280;8915;51.760;14.300;2023-02-18T08:46:48;100791.72;;;5.48;100.00
17593;BME280;8915;51.760;14.300;2023-02-18T08:49:15;100782.25;;;5.50;100.00
17593;BME280;8915;51.760;14.300;2023-02-18T08:51:43;100774.47;;;5.55;100.00
17593;BME280;8915;51.760;14.300;2023-02-18T08:54:10;100779.66;;;5.58;100.00
17593;BME280;8915;51.760;14.300;2023-02-18T08:56:36;100764.97;;;5.57;100.00
17593;BME280;8915;51.760;14.300;2023-02-18T08:59:03;100764.13;;;5.61;100.00
17593;BME280;8915;51.760;14.300;2023-02-18T09:01:30;100759.78;;;5.63;100.00
17593;BME280;8915;51.760;14.300;2023-02-18T09:03:58;100760.63;;;5.67;100.00
17593;BME280;8915;51.760;14.300;2023-02-18T09:06:25;100748.56;;;5.71;100.00
17593;BME280;8915;51.760;14.300;2023-02-18T09:08:51;100745.13;;;5.70;100.00
17593;BME280;8915;51.760;14.300;2023-02-18T09:11:18;100744.22;;;5.76;100.00
17593;BME280;8915;51.760;14.300;2023-02-18T09:13:45;100743.38;;;5.75;100.00
17593;BME280;8915;51.760;14.300;2023-02-18T09:16:13;100732.16;;;5.73;100.00
17593;BME280;8915;51.760;14.300;2023-02-18T09:18:42;100726.97;;;5.73;100.00
17593;BME280;8915;51.760;14.300;2023-02-18T09:21:13;100733.03;;;5.69;100.00
17593;BME280;8915;51.760;14.300;2023-02-18T09:23:40;100729.59;;;5.67;100.00
17593;BME280;8915;51.760;14.300;2023-02-18T09:26:09;100717.50;;;5.67;100.00
17593;BME280;8915;51.760;14.300;2023-02-18T09:28:38;100705.47;;;5.62;100.00
17593;BME280;8915;51.760;14.300;2023-02-18T09:31:05;100689.09;;;5.63;100.00
17593;BME280;8915;51.760;14.300;2023-02-18T09:33:34;100689.06;;;5.69;100.00
17593;BME280;8915;51.760;14.300;2023-02-18T09:36:02;100692.50;;;5.68;100.00
17593;BME280;8915;51.760;14.300;2023-02-18T09:38:30;100678.72;;;5.66;100.00
17593;BME280;8915;51.760;14.300;2023-02-18T09:40:59;100680.47;;;5.61;100.00
17593;BME280;8915;51.760;14.300;2023-02-18T09:43:31;100675.28;;;5.61;100.00
17593;BME280;8915;51.760;14.300;2023-02-18T09:46:00;100674.44;;;5.62;100.00
17593;BME280;8915;51.760;14.300;2023-02-18T09:48:31;100667.53;;;5.59;100.00
17593;BME280;8915;51.760;14.300;2023-02-18T09:50:59;100657.19;;;5.61;100.00
17593;BME280;8915;51.760;14.300;2023-02-18T09:53:25;100655.47;;;5.61;100.00
17593;BME280;8915;51.760;14.300;2023-02-18T09:55:55;100649.41;;;5.61;100.00
17593;BME280;8915;51.760;14.300;2023-02-18T09:58:24;100638.22;;;5.59;100.00
17593;BME280;8915;51.760;14.300;2023-02-18T10:00:55;100643.38;;;5.65;100.00
17593;BME280;8915;51.760;14.300;2023-02-18T10:03:28;100631.31;;;5.64;100.00
17593;BME280;8915;51.760;14.300;2023-02-18T10:05:57;100629.56;;;5.66;100.00
17593;BME280;8915;51.760;14.300;2023-02-18T10:08:25;100616.66;;;5.63;100.00
17593;BME280;8915;51.760;14.300;2023-02-18T10:10:53;100606.34;;;5.61;100.00
17593;BME280;8915;51.760;14.300;2023-02-18T10:13:22;100600.28;;;5.62;100.00
17593;BME280;8915;51.760;14.300;2023-02-18T10:15:50;100590.81;;;5.63;100.00
17593;BME280;8915;51.760;14.300;2023-02-18T10:18:22;100586.44;;;5.68;100.00
17593;BME280;8915;51.760;14.300;2023-02-18T10:20:52;100577.81;;;5.67;100.00
17593;BME280;8915;51.760;14.300;2023-02-18T10:23:23;100575.22;;;5.72;100.00
17593;BME280;8915;51.760;14.300;2023-02-18T10:25:50;100567.47;;;5.71;100.00
17593;BME280;8915;51.760;14.300;2023-02-18T10:28:21;100555.38;;;5.73;100.00
17593;BME280;8915;51.760;14.300;2023-02-18T10:30:54;100551.03;;;5.78;100.00
17593;BME280;8915;51.760;14.300;2023-02-18T10:33:32;100548.41;;;5.81;100.00
17593;BME280;8915;51.760;14.300;2023-02-18T10:36:05;100534.66;;;5.77;100.00
17593;BME280;8915;51.760;14.300;2023-02-18T10:38:38;100532.91;;;5.78;100.00
17593;BME280;8915;51.760;14.300;2023-02-18T10:41:15;100521.69;;;5.79;100.00
17593;BME280;8915;51.760;14.300;2023-02-18T10:43:53;100519.13;;;5.76;100.00
17593;BME280;8915;51.760;14.300;2023-02-18T10:46:29;100512.19;;;5.79;100.00
17593;BME280;8915;51.760;14.300;2023-02-18T10:49:08;100503.59;;;5.76;100.00
17593;BME280;8915;51.760;14.300;2023-02-18T10:51:45;100495.84;;;5.76;100.00
17593;BME280;8915;51.760;14.300;2023-02-18T10:54:13;100484.59;;;5.77;100.00
17593;BME280;8915;51.760;14.300;2023-02-18T10:56:41;100488.09;;;5.74;100.00
17593;BME280;8915;51.760;14.300;2023-02-18T10:59:18;100484.69;;;5.67;100.00
17593;BME280;8915;51.760;14.300;2023-02-18T11:01:44;100473.50;;;5.65;100.00
17593;BME280;8915;51.760;14.300;2023-02-18T11:04:19;100454.56;;;5.62;100.00
17593;BME280;8915;51.760;14.300;2023-02-18T11:06:47;100451.97;;;5.62;100.00
17593;BME280;8915;51.760;14.300;2023-02-18T11:09:39;100438.97;;;5.68;100.00
17593;BME280;8915;51.760;14.300;2023-02-18T11:12:13;100436.44;;;5.63;100.00
17593;BME280;8915;51.760;14.300;2023-02-18T11:14:44;100429.56;;;5.61;100.00
17593;BME280;8915;51.760;14.300;2023-02-18T11:17:18;100420.09;;;5.63;100.00
17593;BME280;8915;51.760;14.300;2023-02-18T11:19:51;100416.59;;;5.65;100.00
17593;BME280;8915;51.760;14.300;2023-02-18T11:22:23;100409.66;;;5.69;100.00
17593;BME280;8915;51.760;14.300;2023-02-18T11:24:55;100392.41;;;5.69;100.00
17593;BME280;8915;51.760;14.300;2023-02-18T11:27:25;100401.91;;;5.69;100.00
17593;BME280;8915;51.760;14.300;2023-02-18T11:29:59;100395.91;;;5.64;100.00
17593;BME280;8915;51.760;14.300;2023-02-18T11:32:28;100389.00;;;5.64;100.00
17593;BME280;8915;51.760;14.300;2023-02-18T11:34:55;100367.44;;;5.68;100.00
17593;BME280;8915;51.760;14.300;2023-02-18T11:37:22;100344.09;;;5.72;100.00
17593;BME280;8915;51.760;14.300;2023-02-18T11:39:50;100369.13;;;5.68;100.00
17593;BME280;8915;51.760;14.300;2023-02-18T11:42:20;100367.44;;;5.68;100.00
17593;BME280;8915;51.760;14.300;2023-02-18T11:44:50;100348.41;;;5.73;100.00
17593;BME280;8915;51.760;14.300;2023-02-18T11:47:27;100330.25;;;5.77;100.00
17593;BME280;8915;51.760;14.300;2023-02-18T11:50:20;100311.19;;;5.84;100.00
17593;BME280;8915;51.760;14.300;2023-02-18T11:52:48;100299.94;;;5.88;100.00
17593;BME280;8915;51.760;14.300;2023-02-18T11:55:17;100288.66;;;5.93;100.00
17593;BME280;8915;51.760;14.300;2023-02-18T11:57:47;100280.03;;;5.98;100.00
17593;BME280;8915;51.760;14.300;2023-02-18T12:00:20;100279.94;;;6.03;100.00
17593;BME280;8915;51.760;14.300;2023-02-18T12:02:48;100262.63;;;6.08;100.00
17593;BME280;8915;51.760;14.300;2023-02-18T12:05:18;100253.03;;;6.16;100.00
17593;BME280;8915;51.760;14.300;2023-02-18T12:07:47;100250.28;;;6.27;100.00
17593;BME280;8915;51.760;14.300;2023-02-18T12:10:21;100241.53;;;6.34;100.00
17593;BME280;8915;51.760;14.300;2023-02-18T12:12:52;100236.22;;;6.43;100.00
17593;BME280;8915;51.760;14.300;2023-02-18T12:15:24;100220.47;;;6.56;100.00
17593;BME280;8915;51.760;14.300;2023-02-18T12:18:07;100220.25;;;6.70;100.00
17593;BME280;8915;51.760;14.300;2023-02-18T12:20:52;100208.81;;;6.85;100.00
17593;BME280;8915;51.760;14.300;2023-02-18T12:23:25;100216.28;;;7.00;100.00
17593;BME280;8915;51.760;14.300;2023-02-18T12:26:03;100206.59;;;7.11;100.00
17593;BME280;8915;51.760;14.300;2023-02-18T12:28:44;100203.75;;;7.25;100.00
17593;BME280;8915;51.760;14.300;2023-02-18T12:31:27;100196.53;;;7.39;100.00
17593;BME280;8915;51.760;14.300;2023-02-18T12:34:13;100195.34;;;7.56;100.00
17593;BME280;8915;51.760;14.300;2023-02-18T12:36:52;100190.72;;;7.70;100.00
17593;BME280;8915;51.760;14.300;2023-02-18T12:39:36;100179.16;;;7.85;100.00
17593;BME280;8915;51.760;14.300;2023-02-18T12:42:24;100179.69;;;8.00;100.00
17593;BME280;8915;51.760;14.300;2023-02-18T12:45:05;100177.75;;;8.09;100.00
17593;BME280;8915;51.760;14.300;2023-02-18T12:48:16;100167.19;;;8.17;100.00
17593;BME280;8915;51.760;14.300;2023-02-18T12:51:05;100164.47;;;8.23;100.00
17593;BME280;8915;51.760;14.300;2023-02-18T12:53:43;100160.84;;;8.29;100.00
17593;BME280;8915;51.760;14.300;2023-02-18T12:56:43;100155.53;;;8.33;100.00
17593;BME280;8915;51.760;14.300;2023-02-18T12:59:25;100159.78;;;8.38;100.00
17593;BME280;8915;51.760;14.300;2023-02-18T13:02:06;100148.38;;;8.45;100.00
17593;BME280;8915;51.760;14.300;2023-02-18T13:04:46;100138.72;;;8.50;100.00
17593;BME280;8915;51.760;14.300;2023-02-18T13:07:38;100136.69;;;8.61;100.00
17593;BME280;8915;51.760;14.300;2023-02-18T13:10:36;100118.34;;;8.67;100.00